Time;durP1;ratioP1;P1;durP2;ratioP2;P2;SDS_P1;SDS_P2;PMS_P1;PMS_P2;Temp;Humidity;BMP_temperature;BMP_pressure;BME280_temperature;BME280_humidity;BME280_pressure;Samples;Min_cycle;Max_cycle;Signal;HPM_P1;HPM_P2
2022/11/09 00:03:45;;;;;;;37.73;26.13;;;6.50;99.90;;;;;;8315775;28;20198;-72
2022/11/09 00:07:46;;;;;;;39.60;25.20;;;6.30;99.90;;;;;;8316767;28;20237;-71
2022/11/09 00:11:47;;;;;;;32.80;23.60;;;6.30;99.90;;;;;;8316396;28;20175;-71
2022/11/09 00:15:47;;;;;;;34.53;23.67;;;6.20;99.90;;;;;;8316233;28;20183;-70
2022/11/09 00:19:48;;;;;;;37.63;25.37;;;6.20;99.90;;;;;;8317400;28;20197;-71
2022/11/09 00:23:49;;;;;;;37.13;25.10;;;6.20;99.90;;;;;;8308576;28;20209;-72
2022/11/09 00:27:51;;;;;;;39.30;26.93;;;6.10;99.90;;;;;;8313428;28;20205;-72
2022/11/09 00:31:52;;;;;;;33.40;23.93;;;6.00;99.90;;;;;;8314424;28;20187;-72
2022/11/09 00:35:53;;;;;;;31.70;22.03;;;5.90;99.90;;;;;;8313773;28;20301;-71
2022/11/09 00:39:54;;;;;;;33.50;22.50;;;5.80;99.90;;;;;;8317722;28;20183;-70
2022/11/09 00:43:55;;;;;;;33.00;22.27;;;5.70;99.90;;;;;;8312355;28;20191;-72
2022/11/09 00:47:55;;;;;;;27.73;19.60;;;5.70;99.90;;;;;;8315340;28;20206;-71
2022/11/09 00:51:56;;;;;;;31.10;20.53;;;5.60;99.90;;;;;;8314109;28;20756;-71
2022/11/09 00:56:03;;;;;;;33.83;21.40;;;5.50;99.90;;;;;;8321435;28;20191;-72
2022/11/09 01:00:04;;;;;;;37.97;24.47;;;5.50;99.90;;;;;;8315815;28;20202;-70
2022/11/09 01:04:05;;;;;;;36.30;23.80;;;5.50;99.90;;;;;;8309050;28;20189;-70
2022/11/09 01:08:06;;;;;;;37.87;25.87;;;5.50;99.90;;;;;;8322077;28;20233;-71
2022/11/09 01:12:07;;;;;;;37.03;26.10;;;5.60;99.90;;;;;;8334897;28;20183;-71
2022/11/09 01:16:12;;;;;;;32.43;22.53;;;5.60;99.90;;;;;;8322860;28;20392;-71
2022/11/09 01:20:14;;;;;;;31.97;21.47;;;5.50;99.90;;;;;;8311983;28;20179;-72
2022/11/09 01:24:15;;;;;;;33.60;22.43;;;5.40;99.90;;;;;;8320910;28;20187;-72
2022/11/09 01:28:16;;;;;;;28.90;20.57;;;5.40;99.90;;;;;;8320253;28;20224;-72
2022/11/09 01:32:17;;;;;;;32.70;21.93;;;5.30;99.90;;;;;;8317852;28;20185;-71
2022/11/09 01:36:20;;;;;;;30.07;19.53;;;5.30;99.90;;;;;;8319684;28;20190;-72
2022/11/09 01:40:21;;;;;;;30.77;20.13;;;5.20;99.90;;;;;;8313835;28;20187;-72
2022/11/09 01:44:25;;;;;;;30.83;19.53;;;5.20;99.90;;;;;;8317316;28;20487;-71
2022/11/09 01:48:42;;;;;;;33.83;22.57;;;5.20;99.90;;;;;;8316832;28;20614;-71
2022/11/09 01:52:46;;;;;;;38.73;23.40;;;5.30;99.90;;;;;;8319913;28;20186;-71
2022/11/09 01:56:50;;;;;;;30.57;21.80;;;5.30;99.90;;;;;;8318361;28;20187;-72
2022/11/09 02:00:52;;;;;;;34.93;23.33;;;5.30;99.90;;;;;;8315445;28;20187;-72
2022/11/09 02:05:03;;;;;;;36.20;22.10;;;5.30;99.90;;;;;;8317399;28;20211;-71
2022/11/09 02:09:25;;;;;;;37.37;23.53;;;5.30;99.90;;;;;;8314402;28;20218;-71
2022/11/09 02:13:28;;;;;;;32.43;22.03;;;5.30;99.90;;;;;;8328761;28;20193;-71
2022/11/09 02:17:29;;;;;;;31.80;21.50;;;5.30;99.90;;;;;;8318078;28;20195;-71
2022/11/09 02:21:31;;;;;;;30.73;22.37;;;5.30;99.90;;;;;;8316703;28;20196;-71
2022/11/09 02:25:32;;;;;;;38.00;23.57;;;5.30;99.90;;;;;;8317420;28;20207;-70
2022/11/09 02:29:46;;;;;;;35.00;25.73;;;5.30;99.90;;;;;;8317171;28;20590;-71
2022/11/09 02:33:49;;;;;;;34.07;22.90;;;5.30;99.90;;;;;;8318410;28;20199;-72
2022/11/09 02:37:50;;;;;;;30.43;22.93;;;5.40;99.90;;;;;;8315845;28;20190;-71
2022/11/09 02:42:11;;;;;;;32.60;21.40;;;5.40;99.90;;;;;;8318487;28;20192;-72
2022/11/09 02:46:12;;;;;;;27.23;19.20;;;5.50;99.90;;;;;;8316262;28;20211;-71
2022/11/09 02:50:13;;;;;;;29.83;18.67;;;5.50;99.90;;;;;;8313117;28;20393;-70
2022/11/09 02:54:13;;;;;;;27.47;18.23;;;5.50;99.90;;;;;;8311927;28;20191;-72
2022/11/09 02:58:14;;;;;;;25.63;17.90;;;5.50;99.90;;;;;;8314485;28;20211;-72
2022/11/09 03:02:15;;;;;;;25.20;17.27;;;5.40;99.90;;;;;;8312882;28;20194;-72
2022/11/09 03:06:16;;;;;;;24.77;16.87;;;5.40;99.90;;;;;;8310596;28;20427;-71
2022/11/09 03:10:17;;;;;;;24.83;16.93;;;5.40;99.90;;;;;;8308727;28;20186;-71
2022/11/09 03:14:17;;;;;;;23.33;16.03;;;5.40;99.90;;;;;;8314694;28;20183;-72
2022/11/09 03:18:18;;;;;;;24.97;17.87;;;5.30;99.90;;;;;;8315853;28;20190;-71
2022/11/09 03:22:19;;;;;;;23.47;16.90;;;5.30;99.90;;;;;;8312381;28;20191;-71
2022/11/09 03:26:21;;;;;;;24.37;16.97;;;5.30;99.90;;;;;;8310262;28;20227;-70
2022/11/09 03:30:22;;;;;;;26.20;18.20;;;5.30;99.90;;;;;;8309652;28;20187;-71
2022/11/09 03:34:22;;;;;;;23.07;16.67;;;5.20;99.90;;;;;;8313052;28;20221;-72
2022/11/09 03:38:23;;;;;;;29.13;17.83;;;5.20;99.90;;;;;;8314319;28;20186;-71
2022/11/09 03:42:24;;;;;;;26.10;17.17;;;5.10;99.90;;;;;;8312126;28;20192;-72
2022/11/09 03:46:24;;;;;;;23.90;16.43;;;5.10;99.90;;;;;;8303651;28;20220;-72
2022/11/09 03:50:26;;;;;;;25.27;17.03;;;5.10;99.90;;;;;;8312991;28;20217;-70
2022/11/09 03:54:27;;;;;;;22.17;16.20;;;5.00;99.90;;;;;;8313909;28;20226;-72
2022/11/09 03:58:28;;;;;;;21.63;14.73;;;5.00;99.90;;;;;;8314701;28;20647;-71
2022/11/09 04:02:29;;;;;;;22.87;14.83;;;5.00;99.90;;;;;;8313805;28;20182;-70
2022/11/09 04:06:29;;;;;;;19.50;13.50;;;5.00;99.90;;;;;;8318314;28;20226;-71
2022/11/09 04:10:30;;;;;;;26.53;18.83;;;4.90;99.90;;;;;;8316381;28;20181;-71
2022/11/09 04:14:31;;;;;;;26.27;18.57;;;5.00;99.90;;;;;;8318687;28;20210;-70
2022/11/09 04:18:32;;;;;;;27.50;17.20;;;5.00;99.90;;;;;;8313726;28;20194;-71
2022/11/09 04:22:33;;;;;;;36.33;20.13;;;4.90;99.90;;;;;;8314601;28;20182;-71
2022/11/09 04:26:34;;;;;;;27.67;16.40;;;4.90;99.90;;;;;;8313787;28;20293;-70
2022/11/09 04:30:36;;;;;;;20.27;15.10;;;4.80;99.90;;;;;;8319432;28;20182;-72
2022/11/09 04:34:36;;;;;;;23.57;14.80;;;4.70;99.90;;;;;;8320792;28;20171;-72
2022/11/09 04:38:37;;;;;;;20.97;14.07;;;4.70;99.90;;;;;;8321466;28;20202;-71
2022/11/09 04:42:38;;;;;;;19.20;11.60;;;4.60;99.90;;;;;;8320660;28;20197;-72
2022/11/09 04:46:39;;;;;;;28.87;20.60;;;4.60;99.90;;;;;;8316626;28;20246;-72
2022/11/09 04:50:39;;;;;;;27.90;17.47;;;4.50;99.90;;;;;;8319717;28;20234;-71
2022/11/09 04:54:40;;;;;;;32.73;22.70;;;4.50;99.90;;;;;;8317960;28;20497;-72
2022/11/09 04:58:41;;;;;;;32.23;22.17;;;4.50;99.90;;;;;;8319369;28;20207;-71
2022/11/09 05:02:42;;;;;;;28.07;19.83;;;4.50;99.90;;;;;;8321693;28;20217;-72
2022/11/09 05:06:42;;;;;;;29.07;18.53;;;4.50;99.90;;;;;;8313633;28;20213;-73
2022/11/09 05:10:43;;;;;;;26.10;17.13;;;4.50;99.90;;;;;;8320648;28;20183;-71
2022/11/09 05:14:44;;;;;;;23.10;16.70;;;4.40;99.90;;;;;;8321372;28;20605;-72
2022/11/09 05:18:46;;;;;;;24.70;16.57;;;4.40;99.90;;;;;;8319011;28;20183;-71
2022/11/09 05:27:05;;;;;;;24.00;17.47;;;4.30;99.90;;;;;;8320852;28;20208;-72
2022/11/09 05:31:06;;;;;;;21.27;15.33;;;4.20;99.90;;;;;;8312996;28;20182;-72
2022/11/09 05:35:08;;;;;;;25.33;16.20;;;4.10;99.90;;;;;;8318644;28;20187;-71
2022/11/09 05:39:09;;;;;;;25.33;17.27;;;4.10;99.90;;;;;;8321448;28;20190;-72
2022/11/09 05:43:09;;;;;;;24.13;16.60;;;4.00;99.90;;;;;;8320632;28;20612;-72
2022/11/09 05:47:10;;;;;;;25.97;17.30;;;4.00;99.90;;;;;;8320793;28;20210;-72
2022/11/09 05:51:13;;;;;;;27.13;18.53;;;4.00;99.90;;;;;;8318968;28;20183;-72
2022/11/09 05:55:14;;;;;;;23.67;16.17;;;4.00;99.90;;;;;;8325210;28;20198;-72
2022/11/09 05:59:15;;;;;;;25.83;18.17;;;3.90;99.90;;;;;;8316679;28;20207;-71
2022/11/09 06:03:15;;;;;;;31.60;24.03;;;3.90;99.90;;;;;;8319345;28;20240;-72
2022/11/09 06:07:16;;;;;;;34.40;25.20;;;3.90;99.90;;;;;;8317495;28;20511;-71
2022/11/09 06:11:17;;;;;;;30.17;20.40;;;3.90;99.90;;;;;;8319594;28;20189;-72
2022/11/09 06:15:18;;;;;;;24.63;17.57;;;3.90;99.90;;;;;;8317183;28;20186;-71
2022/11/09 06:19:19;;;;;;;25.10;17.67;;;3.90;99.90;;;;;;8320521;28;20347;-72
2022/11/09 06:23:24;;;;;;;19.63;15.57;;;3.80;99.90;;;;;;8315166;28;20292;-72
2022/11/09 06:27:25;;;;;;;31.07;19.97;;;3.80;99.90;;;;;;8333843;28;20239;-71
2022/11/09 06:31:27;;;;;;;42.87;26.70;;;3.90;99.90;;;;;;8320938;28;20210;-71
2022/11/09 06:35:28;;;;;;;53.33;33.67;;;4.00;99.90;;;;;;8318801;28;20186;-71
2022/11/09 06:39:29;;;;;;;48.57;30.83;;;4.20;99.90;;;;;;8320220;28;20190;-72
2022/11/09 06:43:30;;;;;;;45.43;30.20;;;4.30;99.90;;;;;;8316310;28;20186;-72
2022/11/09 06:47:31;;;;;;;57.47;32.70;;;4.50;99.90;;;;;;8316959;28;20214;-72
2022/11/09 06:51:32;;;;;;;41.03;27.83;;;4.70;99.90;;;;;;8317455;28;20241;-71
2022/11/09 06:55:34;;;;;;;47.17;31.93;;;4.90;99.90;;;;;;8318955;28;20179;-71
2022/11/09 06:59:35;;;;;;;49.17;33.87;;;5.20;99.90;;;;;;8316342;28;20227;-71
2022/11/09 07:03:37;;;;;;;49.50;32.17;;;5.40;99.90;;;;;;8321167;28;20181;-71
2022/11/09 07:07:38;;;;;;;43.73;31.90;;;5.60;99.90;;;;;;8314450;28;20245;-72
2022/11/09 07:11:39;;;;;;;40.37;27.30;;;5.80;99.90;;;;;;8316786;28;20179;-71
2022/11/09 07:15:39;;;;;;;41.87;27.53;;;5.90;99.90;;;;;;8317116;28;20275;-71
2022/11/09 07:19:40;;;;;;;36.83;24.30;;;6.10;99.90;;;;;;8317835;28;20185;-71
2022/11/09 07:23:42;;;;;;;35.33;23.10;;;6.20;99.90;;;;;;8317809;28;20265;-70
2022/11/09 07:27:43;;;;;;;49.97;29.13;;;6.30;99.90;;;;;;8317482;28;20471;-72
2022/11/09 07:31:44;;;;;;;66.43;33.90;;;6.40;99.90;;;;;;8316493;28;20186;-71
2022/11/09 07:35:45;;;;;;;38.27;25.80;;;6.40;99.90;;;;;;8317149;28;20435;-73
2022/11/09 07:39:46;;;;;;;37.30;25.37;;;6.40;99.90;;;;;;8317285;28;20186;-72
2022/11/09 07:43:47;;;;;;;38.90;24.07;;;6.50;99.90;;;;;;8314730;28;20232;-72
2022/11/09 07:47:47;;;;;;;39.13;24.17;;;6.60;99.90;;;;;;8314638;28;20202;-72
2022/11/09 07:51:48;;;;;;;45.03;27.00;;;6.70;99.90;;;;;;8316479;28;20236;-72
2022/11/09 07:56:01;;;;;;;49.03;31.87;;;6.80;99.90;;;;;;8316935;28;20190;-71
2022/11/09 08:00:03;;;;;;;51.00;35.73;;;7.10;99.90;;;;;;8306744;28;20299;-73
2022/11/09 08:04:05;;;;;;;46.33;32.63;;;7.30;99.90;;;;;;8311801;28;20187;-72
2022/11/09 08:08:07;;;;;;;48.27;31.70;;;7.50;99.90;;;;;;8317073;28;20304;-72
2022/11/09 08:12:08;;;;;;;38.37;25.93;;;7.80;99.90;;;;;;8318349;28;20181;-72
2022/11/09 08:16:09;;;;;;;75.77;47.43;;;8.00;99.90;;;;;;8318705;28;20171;-72
2022/11/09 08:20:10;;;;;;;47.67;31.37;;;8.20;99.90;;;;;;8314801;28;20245;-72
2022/11/09 08:24:11;;;;;;;31.57;24.37;;;8.40;99.90;;;;;;8315057;28;20186;-72
2022/11/09 08:28:12;;;;;;;62.83;40.80;;;8.60;99.90;;;;;;8313152;28;20234;-71
2022/11/09 08:32:12;;;;;;;143.63;83.47;;;8.70;99.90;;;;;;8314470;28;20183;-71
2022/11/09 08:36:15;;;;;;;82.30;55.10;;;8.90;99.90;;;;;;8316713;28;20190;-71
2022/11/09 08:40:19;;;;;;;40.60;28.50;;;9.10;99.90;;;;;;8313175;28;20230;-71
2022/11/09 08:44:21;;;;;;;24.00;19.83;;;9.00;99.90;;;;;;8314887;28;20188;-71
2022/11/09 08:48:22;;;;;;;22.80;16.90;;;8.90;99.90;;;;;;8312245;28;20210;-71
2022/11/09 08:52:23;;;;;;;21.77;15.23;;;9.00;99.90;;;;;;8313942;28;20247;-71
2022/11/09 08:56:24;;;;;;;18.20;14.33;;;9.20;99.90;;;;;;8313164;28;20193;-72
2022/11/09 09:00:25;;;;;;;15.70;11.60;;;9.40;99.90;;;;;;8314805;28;20216;-71
2022/11/09 09:04:26;;;;;;;13.07;10.03;;;9.70;99.90;;;;;;8316000;28;20202;-71
2022/11/09 09:08:27;;;;;;;14.37;10.80;;;9.80;99.90;;;;;;8312511;28;20626;-72
2022/11/09 09:12:28;;;;;;;16.13;10.93;;;9.90;99.90;;;;;;8318652;28;20192;-72
2022/11/09 09:16:29;;;;;;;13.60;10.37;;;10.30;99.90;;;;;;8317390;28;20189;-71
2022/11/09 09:20:30;;;;;;;12.33;9.27;;;10.50;99.90;;;;;;8319335;28;20185;-71
2022/11/09 09:24:31;;;;;;;12.60;8.97;;;10.80;99.90;;;;;;8323807;28;20244;-70
2022/11/09 09:28:32;;;;;;;11.07;7.77;;;11.40;99.90;;;;;;8316745;28;20214;-70
2022/11/09 09:32:33;;;;;;;10.17;6.87;;;12.10;99.90;;;;;;8317678;28;20183;-71
2022/11/09 09:36:37;;;;;;;9.90;7.07;;;12.60;99.90;;;;;;8319336;28;20213;-73
2022/11/09 09:40:49;;;;;;;9.60;7.63;;;13.00;99.90;;;;;;8320091;28;20203;-71
2022/11/09 09:45:13;;;;;;;8.13;5.60;;;13.10;1.00;;;;;;8316670;28;20186;-71
2022/11/09 09:49:19;;;;;;;8.83;5.83;;;13.30;99.90;;;;;;8311360;28;20218;-70
2022/11/09 09:53:36;;;;;;;7.00;5.57;;;13.40;99.90;;;;;;8321441;28;20194;-71
2022/11/09 09:57:37;;;;;;;7.27;5.87;;;13.50;99.90;;;;;;8312916;28;20198;-71
2022/11/09 10:01:42;;;;;;;7.70;5.47;;;13.50;99.90;;;;;;8317723;28;20182;-71
2022/11/09 10:06:01;;;;;;;7.00;5.83;;;13.40;89.60;;;;;;8318157;28;20198;-72
2022/11/09 10:10:11;;;;;;;8.60;6.17;;;13.50;99.90;;;;;;8321138;28;20217;-72
2022/11/09 10:14:47;;;;;;;10.07;5.93;;;13.70;99.90;;;;;;8319950;28;20239;-72
2022/11/09 10:19:10;;;;;;;9.73;7.10;;;13.90;99.90;;;;;;8315921;28;20179;-72
2022/11/09 10:23:33;;;;;;;9.57;6.73;;;14.00;86.20;;;;;;8314778;28;20183;-71
2022/11/09 10:27:36;;;;;;;11.37;8.20;;;14.20;1.00;;;;;;8316363;28;20249;-72
2022/11/09 10:31:39;;;;;;;12.90;9.13;;;14.50;1.00;;;;;;8316245;28;20216;-72
2022/11/09 10:35:46;;;;;;;10.53;7.60;;;14.60;1.00;;;;;;8314140;28;20182;-71
2022/11/09 10:39:54;;;;;;;10.33;7.20;;;14.70;1.00;;;;;;8314021;28;20195;-71
2022/11/09 10:43:55;;;;;;;11.87;8.03;;;14.90;1.00;;;;;;8315108;28;20179;-70
2022/11/09 10:47:57;;;;;;;11.27;7.87;;;15.00;1.00;;;;;;8316371;28;20224;-72
2022/11/09 10:51:57;;;;;;;11.07;8.33;;;15.00;1.00;;;;;;8316500;28;20266;-72
2022/11/09 10:56:17;;;;;;;10.40;8.30;;;15.10;1.00;;;;;;8313153;28;20175;-72
2022/11/09 11:00:19;;;;;;;13.67;9.40;;;15.20;1.00;;;;;;8312196;28;20207;-72
2022/11/09 11:04:24;;;;;;;14.83;9.97;;;15.20;1.00;;;;;;8319958;28;20191;-71
2022/11/09 11:08:32;;;;;;;14.80;11.17;;;15.00;1.00;;;;;;8313943;28;20210;-72
2022/11/09 11:12:33;;;;;;;14.83;9.70;;;14.80;1.00;;;;;;8318066;28;20178;-71
2022/11/09 11:16:35;;;;;;;13.87;9.77;;;14.90;1.00;;;;;;8314677;28;20190;-72
2022/11/09 11:20:36;;;;;;;13.23;10.03;;;14.90;1.00;;;;;;8316137;28;20197;-70
2022/11/09 11:24:49;;;;;;;13.83;10.37;;;15.00;99.90;;;;;;8307788;28;20269;-71
2022/11/09 11:29:05;;;;;;;13.73;10.30;;;15.00;1.00;;;;;;8329980;28;20258;-72
2022/11/09 11:33:20;;;;;;;12.97;10.00;;;15.00;1.00;;;;;;8314551;28;20175;-72
2022/11/09 11:37:43;;;;;;;13.37;10.03;;;15.00;1.00;;;;;;8313476;28;20213;-71
2022/11/09 11:42:00;;;;;;;13.97;10.60;;;14.90;1.00;;;;;;8316365;28;20256;-72
2022/11/09 11:46:29;;;;;;;15.43;11.80;;;14.80;1.00;;;;;;8313153;28;20206;-71
2022/11/09 11:50:33;;;;;;;16.57;11.30;;;14.90;1.00;;;;;;8315422;28;20204;-72
2022/11/09 11:54:57;;;;;;;13.03;10.27;;;14.80;1.00;;;;;;8315569;28;20179;-71
2022/11/09 11:59:03;;;;;;;13.43;9.70;;;14.70;1.00;;;;;;8301167;28;20268;-72
2022/11/09 12:03:22;;;;;;;13.63;10.63;;;14.60;1.00;;;;;;8315627;28;20257;-72
2022/11/09 12:07:44;;;;;;;11.77;10.23;;;14.60;1.00;;;;;;8301670;28;20229;-71
2022/11/09 12:12:00;;;;;;;14.03;10.07;;;14.60;1.00;;;;;;8312906;28;20258;-71
2022/11/09 12:16:30;;;;;;;13.00;8.90;;;14.60;1.00;;;;;;8307016;28;20282;-71
2022/11/09 12:20:52;;;;;;;11.60;9.30;;;14.60;1.00;;;;;;8313221;28;20240;-72
2022/11/09 12:25:23;;;;;;;12.03;8.90;;;14.50;1.00;;;;;;8313109;28;20197;-71
2022/11/09 12:30:13;;;;;;;12.17;8.93;;;14.40;1.00;;;;;;8314994;28;20296;-70
2022/11/09 12:34:45;;;;;;;11.57;9.03;;;14.50;1.00;;;;;;8300535;28;20197;-70
2022/11/09 12:38:51;;;;;;;11.07;9.00;;;14.50;1.00;;;;;;8312856;28;20207;-71
2022/11/09 12:43:14;;;;;;;11.23;8.50;;;14.50;1.00;;;;;;8311198;28;20256;-72
2022/11/09 12:47:20;;;;;;;12.10;9.30;;;14.40;1.00;;;;;;8331093;28;20212;-71
2022/11/09 12:51:22;;;;;;;10.70;8.10;;;14.30;1.00;;;;;;8314506;28;20198;-71
2022/11/09 12:55:34;;;;;;;13.20;9.00;;;14.30;23.20;;;;;;8321824;28;20186;-71
2022/11/09 12:59:48;;;;;;;14.33;9.90;;;14.30;25.40;;;;;;8318823;28;20288;-71
2022/11/09 13:03:55;;;;;;;11.53;8.63;;;14.30;1.00;;;;;;8319134;28;20226;-70
2022/11/09 13:08:00;;;;;;;11.23;9.00;;;14.40;1.50;;;;;;8322306;28;20241;-71
2022/11/09 13:12:27;;;;;;;12.20;9.47;;;14.50;1.00;;;;;;8327449;28;20191;-72
2022/11/09 13:16:34;;;;;;;12.13;9.50;;;14.60;51.20;;;;;;8317791;28;20218;-71
2022/11/09 13:20:34;;;;;;;13.83;9.40;;;14.70;73.70;;;;;;8319197;28;20197;-71
2022/11/09 13:24:55;;;;;;;17.20;9.93;;;14.80;52.10;;;;;;8320348;28;20502;-70
2022/11/09 13:29:15;;;;;;;12.30;8.70;;;14.90;1.00;;;;;;8318005;28;20210;-71
2022/11/09 13:33:22;;;;;;;12.10;8.20;;;15.00;1.00;;;;;;8317879;28;20228;-71
2022/11/09 13:37:41;;;;;;;10.27;7.77;;;15.00;1.00;;;;;;8319678;28;20194;-71
2022/11/09 13:41:42;;;;;;;11.83;8.10;;;15.10;1.00;;;;;;8318259;28;20186;-71
2022/11/09 13:45:48;;;;;;;12.87;9.07;;;15.10;1.00;;;;;;8320331;28;20191;-71
2022/11/09 13:49:50;;;;;;;11.53;6.97;;;15.00;1.00;;;;;;8314061;28;20266;-72
2022/11/09 13:54:02;;;;;;;9.70;8.10;;;15.00;1.00;;;;;;8318873;28;20190;-71
2022/11/09 13:58:49;;;;;;;12.47;9.30;;;14.90;1.00;;;;;;8313580;28;20202;-71
2022/11/09 14:03:20;;;;;;;17.57;12.73;;;14.70;65.60;;;;;;8316927;28;20185;-70
2022/11/09 14:07:31;;;;;;;16.23;11.47;;;14.30;99.90;;;;;;8316797;28;20222;-71
2022/11/09 14:11:52;;;;;;;12.93;10.20;;;14.10;1.00;;;;;;8318826;28;20572;-71
2022/11/09 14:16:03;;;;;;;14.80;11.77;;;14.10;1.00;;;;;;8316080;28;20299;-71
2022/11/09 14:20:11;;;;;;;16.03;10.77;;;14.20;1.00;;;;;;8317283;28;20187;-71
2022/11/09 14:24:21;;;;;;;13.40;9.93;;;14.20;1.00;;;;;;8320828;28;20181;-71
2022/11/09 14:28:28;;;;;;;15.17;10.70;;;14.20;1.00;;;;;;8320061;28;20272;-70
2022/11/09 14:32:36;;;;;;;33.63;20.63;;;14.00;1.00;;;;;;8318976;28;20235;-71
2022/11/09 14:36:40;;;;;;;19.07;13.73;;;13.70;99.90;;;;;;8317537;28;20245;-70
2022/11/09 14:40:45;;;;;;;20.53;14.47;;;13.40;99.90;;;;;;8312066;28;20205;-71
2022/11/09 14:44:47;;;;;;;17.57;12.83;;;13.20;99.90;;;;;;8319050;28;20247;-70
2022/11/09 14:48:53;;;;;;;15.30;11.57;;;13.10;99.90;;;;;;8332834;28;20305;-71
2022/11/09 14:52:55;;;;;;;16.43;11.03;;;12.90;99.90;;;;;;8322068;28;20186;-71
2022/11/09 14:56:56;;;;;;;13.83;10.67;;;12.70;99.90;;;;;;8313907;28;20230;-70
2022/11/09 15:01:28;;;;;;;12.47;10.27;;;12.50;1.00;;;;;;8315529;28;20221;-71
2022/11/09 15:05:38;;;;;;;12.50;9.43;;;12.30;72.40;;;;;;8313169;28;20204;-71
2022/11/09 15:09:44;;;;;;;13.83;9.03;;;12.00;99.90;;;;;;8311459;28;20296;-71
2022/11/09 15:13:46;;;;;;;12.03;8.90;;;11.80;1.00;;;;;;8317323;28;20273;-71
2022/11/09 15:17:47;;;;;;;12.13;9.37;;;11.50;99.90;;;;;;8318261;28;20182;-71
2022/11/09 15:21:47;;;;;;;13.43;9.17;;;11.30;1.00;;;;;;8316397;28;20186;-71
2022/11/09 15:25:49;;;;;;;13.30;9.30;;;11.10;99.90;;;;;;8316287;28;20229;-70
2022/11/09 15:29:50;;;;;;;11.07;8.70;;;10.90;1.00;;;;;;8310603;28;20233;-71
2022/11/09 15:33:53;;;;;;;11.07;8.60;;;10.70;99.90;;;;;;8315078;28;20155;-71
2022/11/09 15:37:55;;;;;;;12.67;9.73;;;10.50;95.40;;;;;;8311850;28;20194;-71
2022/11/09 15:41:56;;;;;;;11.10;9.00;;;10.20;1.00;;;;;;8315734;28;20186;-70
2022/11/09 15:45:59;;;;;;;11.10;8.20;;;10.00;1.00;;;;;;8315520;28;20189;-70
2022/11/09 15:50:02;;;;;;;11.10;8.63;;;9.80;99.90;;;;;;8314581;28;20182;-71
2022/11/09 15:54:03;;;;;;;14.57;9.63;;;9.60;99.90;;;;;;8312985;28;20182;-72
2022/11/09 15:58:04;;;;;;;14.23;10.30;;;9.40;99.90;;;;;;8310856;28;20290;-71
2022/11/09 16:02:05;;;;;;;16.30;10.80;;;9.20;99.20;;;;;;8318627;28;20185;-70
2022/11/09 16:06:10;;;;;;;16.97;10.87;;;9.10;13.30;;;;;;8316491;28;20389;-71
2022/11/09 16:10:14;;;;;;;16.40;11.10;;;9.00;99.90;;;;;;8312887;28;20188;-71
2022/11/09 16:14:16;;;;;;;16.57;11.60;;;8.90;1.00;;;;;;8316204;28;20190;-70
2022/11/09 16:18:18;;;;;;;16.07;12.20;;;8.80;1.00;;;;;;8312739;28;20215;-73
2022/11/09 16:22:19;;;;;;;22.47;12.77;;;8.80;23.80;;;;;;8314885;28;20211;-71
2022/11/09 16:26:20;;;;;;;15.63;11.77;;;8.70;99.90;;;;;;8322772;28;20286;-71
2022/11/09 16:30:21;;;;;;;17.10;12.33;;;8.60;95.30;;;;;;8320376;28;20387;-71
2022/11/09 16:34:22;;;;;;;15.50;11.67;;;8.50;99.90;;;;;;8320893;28;20186;-72
2022/11/09 16:38:23;;;;;;;22.90;14.77;;;8.40;99.90;;;;;;8321479;28;20397;-71
2022/11/09 16:42:25;;;;;;;20.57;13.73;;;8.40;1.00;;;;;;8310044;28;20193;-71
2022/11/09 16:46:28;;;;;;;18.40;12.70;;;8.40;99.90;;;;;;8320105;28;20219;-71
2022/11/09 16:50:29;;;;;;;17.27;11.97;;;8.30;99.90;;;;;;8321506;28;20175;-71
2022/11/09 16:54:29;;;;;;;23.40;15.73;;;8.20;99.90;;;;;;8321432;28;20179;-69
2022/11/09 16:58:30;;;;;;;22.53;14.90;;;8.10;30.60;;;;;;8319176;28;20230;-70
2022/11/09 17:02:31;;;;;;;23.27;16.00;;;8.10;99.90;;;;;;8316612;28;20302;-70
2022/11/09 17:06:34;;;;;;;25.43;16.20;;;8.10;99.90;;;;;;8317113;28;20230;-72
2022/11/09 17:10:40;;;;;;;22.50;14.93;;;8.00;99.90;;;;;;8319275;28;20187;-71
2022/11/09 17:14:41;;;;;;;24.77;16.77;;;7.90;95.40;;;;;;8320066;28;20197;-71
2022/11/09 17:18:42;;;;;;;30.57;20.37;;;7.80;99.90;;;;;;8314952;28;20191;-70
2022/11/09 17:22:43;;;;;;;33.40;22.40;;;7.80;99.90;;;;;;8319182;28;20250;-71
2022/11/09 17:26:44;;;;;;;34.77;21.83;;;7.90;99.90;;;;;;8318941;28;20213;-71
2022/11/09 17:30:45;;;;;;;37.57;23.60;;;8.00;99.90;;;;;;8315940;28;20178;-71
2022/11/09 17:34:46;;;;;;;33.73;22.90;;;8.20;99.90;;;;;;8313613;28;20192;-70
2022/11/09 17:38:46;;;;;;;34.67;21.47;;;8.30;1.00;;;;;;8312706;28;20183;-71
2022/11/09 17:42:47;;;;;;;35.50;22.47;;;8.30;99.90;;;;;;8316601;28;20209;-72
2022/11/09 17:46:48;;;;;;;34.33;21.50;;;8.40;99.90;;;;;;8315636;28;20226;-72
2022/11/09 17:50:49;;;;;;;32.37;20.93;;;8.40;78.80;;;;;;8315117;28;20183;-71
2022/11/09 17:54:50;;;;;;;34.37;22.00;;;8.40;99.90;;;;;;8314277;28;20185;-71
2022/11/09 17:58:50;;;;;;;30.90;21.73;;;8.40;1.00;;;;;;8312370;28;20268;-71
2022/11/09 18:02:54;;;;;;;33.93;21.77;;;8.40;86.40;;;;;;8317020;28;20187;-71
2022/11/09 18:06:55;;;;;;;31.70;21.60;;;8.40;99.90;;;;;;8328684;28;20222;-70
2022/11/09 18:10:59;;;;;;;40.23;23.87;;;8.40;1.00;;;;;;8310038;28;20186;-71
2022/11/09 18:15:00;;;;;;;34.60;21.80;;;8.40;1.00;;;;;;8313734;28;20182;-71
2022/11/09 18:19:02;;;;;;;34.03;21.80;;;8.40;1.00;;;;;;8317815;28;20186;-70
2022/11/09 18:23:03;;;;;;;34.87;23.00;;;8.40;99.90;;;;;;8317005;28;20357;-72
2022/11/09 18:27:04;;;;;;;38.20;25.67;;;8.30;99.90;;;;;;8317141;28;20198;-71
2022/11/09 18:31:11;;;;;;;43.80;29.07;;;8.40;99.90;;;;;;8313804;28;20210;-71
2022/11/09 18:35:11;;;;;;;42.60;28.03;;;8.40;99.90;;;;;;8322913;28;20183;-70
2022/11/09 18:39:12;;;;;;;36.87;25.60;;;8.40;99.90;;;;;;8316325;28;20218;-71
2022/11/09 18:43:13;;;;;;;36.80;26.77;;;8.50;1.00;;;;;;8313514;28;20421;-71
2022/11/09 18:47:14;;;;;;;40.63;29.03;;;8.60;92.60;;;;;;8315216;28;20206;-71
2022/11/09 18:51:15;;;;;;;40.43;26.97;;;8.70;1.00;;;;;;8315515;28;20199;-69
2022/11/09 18:55:16;;;;;;;36.13;24.67;;;8.70;99.90;;;;;;8317962;28;20187;-70
2022/11/09 18:59:17;;;;;;;32.47;20.87;;;8.90;1.00;;;;;;8313844;28;20432;-70
2022/11/09 19:03:18;;;;;;;30.37;20.13;;;8.90;99.90;;;;;;8316852;28;20191;-71
2022/11/09 19:07:19;;;;;;;30.57;20.40;;;8.90;99.90;;;;;;8313967;28;20269;-72
2022/11/09 19:11:20;;;;;;;29.80;20.27;;;9.00;1.00;;;;;;8313536;28;20194;-71
2022/11/09 19:15:21;;;;;;;30.43;19.73;;;8.90;1.00;;;;;;8312103;28;20186;-70
2022/11/09 19:19:23;;;;;;;32.30;21.03;;;8.90;99.90;;;;;;8306406;28;20191;-71
2022/11/09 19:23:25;;;;;;;27.90;19.17;;;8.90;99.90;;;;;;8314884;28;20242;-70
2022/11/09 19:27:27;;;;;;;26.87;18.30;;;8.90;99.90;;;;;;8313430;28;20215;-72
2022/11/09 19:31:29;;;;;;;29.73;19.17;;;8.90;99.90;;;;;;8316997;28;20184;-70
2022/11/09 19:35:30;;;;;;;30.07;19.57;;;8.90;99.90;;;;;;8314973;28;20187;-71
2022/11/09 19:39:30;;;;;;;33.80;20.43;;;8.80;99.90;;;;;;8312564;28;20210;-71
2022/11/09 19:43:32;;;;;;;29.00;19.13;;;8.80;99.90;;;;;;8311242;28;20192;-71
2022/11/09 19:47:33;;;;;;;30.53;20.30;;;8.80;99.90;;;;;;8313481;28;20207;-70
2022/11/09 19:51:34;;;;;;;30.73;19.40;;;8.90;99.90;;;;;;8309217;28;20225;-70
2022/11/09 19:55:35;;;;;;;28.90;19.37;;;9.00;76.80;;;;;;8312505;28;20187;-71
2022/11/09 19:59:36;;;;;;;30.93;19.70;;;9.00;26.40;;;;;;8306822;28;20202;-70
2022/11/09 20:03:37;;;;;;;32.33;19.40;;;9.00;1.00;;;;;;8310265;28;20187;-70
2022/11/09 20:07:38;;;;;;;33.10;20.13;;;9.10;1.00;;;;;;8308571;28;20238;-71
2022/11/09 20:16:05;;;;;;;30.30;19.40;;;9.40;99.90;;;;;;8315326;28;20286;-71
2022/11/09 20:20:06;;;;;;;29.00;18.57;;;9.40;99.90;;;;;;8310403;28;20310;-71
2022/11/09 20:24:10;;;;;;;28.33;17.90;;;9.50;23.50;;;;;;8313362;28;20189;-71
2022/11/09 20:28:11;;;;;;;27.00;17.00;;;9.60;1.00;;;;;;8311807;28;20231;-71
2022/11/09 20:32:12;;;;;;;27.17;18.23;;;9.70;1.00;;;;;;8318496;28;20187;-71
2022/11/09 20:36:14;;;;;;;26.80;18.20;;;9.80;1.00;;;;;;8309843;28;20180;-71
2022/11/09 20:40:15;;;;;;;26.83;18.07;;;9.90;97.60;;;;;;8312036;28;20208;-72
2022/11/09 20:44:16;;;;;;;26.43;17.43;;;10.00;29.70;;;;;;8311229;28;20185;-71
2022/11/09 20:48:17;;;;;;;26.27;17.20;;;10.00;1.00;;;;;;8315193;28;20232;-71
2022/11/09 20:52:18;;;;;;;26.67;17.43;;;10.10;1.00;;;;;;8307138;28;20193;-71
2022/11/09 20:56:20;;;;;;;30.90;18.73;;;10.20;1.00;;;;;;8308831;28;20186;-70
2022/11/09 21:00:21;;;;;;;25.27;18.20;;;10.30;1.00;;;;;;8306926;28;20282;-71
2022/11/09 21:04:22;;;;;;;26.67;18.43;;;10.40;99.90;;;;;;8310100;28;20185;-71
2022/11/09 21:08:23;;;;;;;27.20;18.63;;;10.40;99.90;;;;;;8313420;28;20248;-71